Time;durP1;ratioP1;P1;durP2;ratioP2;P2;SDS_P1;SDS_P2;PMS_P1;PMS_P2;Temp;Humidity;BMP_temperature;BMP_pressure;BME280_temperature;BME280_humidity;BME280_pressure;Samples;Min_cycle;Max_cycle;Signal;HPM_P1;HPM_P2
2022/04/26 03:38:16;;;;;;;5.57;4.18;;;8.40;99.90;;;;;;5085280;28;20035;-42
2022/04/26 03:40:42;;;;;;;5.03;4.35;;;8.40;99.90;;;;;;5105703;28;20098;-43
2022/04/26 03:43:07;;;;;;;7.97;4.88;;;8.40;99.90;;;;;;5095081;28;20063;-42
2022/04/26 03:45:33;;;;;;;9.25;5.03;;;8.40;99.90;;;;;;5105767;28;20032;-44
2022/04/26 03:47:58;;;;;;;5.25;4.47;;;8.40;99.90;;;;;;5094063;28;20478;-42
2022/04/26 03:50:23;;;;;;;7.40;4.38;;;8.40;99.90;;;;;;5105768;28;20537;-43
2022/04/26 03:52:52;;;;;;;5.90;4.45;;;8.40;99.90;;;;;;5093446;28;20031;-43
2022/04/26 03:55:19;;;;;;;7.40;4.68;;;8.40;99.90;;;;;;5105481;28;20020;-41
2022/04/26 03:57:44;;;;;;;6.18;4.50;;;8.50;99.90;;;;;;5093923;28;20048;-41
2022/04/26 04:00:11;;;;;;;6.80;4.28;;;8.50;99.90;;;;;;5105751;28;20817;-41
2022/04/26 04:02:36;;;;;;;5.50;4.65;;;8.50;99.90;;;;;;5095416;28;20028;-42
2022/04/26 04:05:02;;;;;;;6.00;4.22;;;8.50;99.90;;;;;;5102917;28;20028;-42
2022/04/26 04:07:27;;;;;;;7.28;4.18;;;8.50;99.90;;;;;;5098548;28;20032;-43
2022/04/26 04:09:54;;;;;;;5.40;4.22;;;8.50;99.90;;;;;;5099096;28;20390;-44
2022/04/26 04:12:19;;;;;;;6.18;3.90;;;8.60;99.90;;;;;;5101469;28;20039;-42
2022/04/26 04:14:45;;;;;;;7.07;5.15;;;8.60;99.90;;;;;;5097703;28;20028;-42
2022/04/26 04:17:10;;;;;;;8.00;5.13;;;8.60;99.90;;;;;;5104401;28;20441;-42
2022/04/26 04:19:36;;;;;;;7.45;4.72;;;8.60;99.90;;;;;;5094123;28;20016;-44
2022/04/26 04:22:02;;;;;;;9.05;4.95;;;8.60;99.90;;;;;;5104861;28;20019;-45
2022/04/26 04:24:28;;;;;;;7.38;4.78;;;8.60;99.90;;;;;;5094135;28;20028;-43
2022/04/26 04:26:53;;;;;;;6.03;4.57;;;8.60;99.90;;;;;;5106497;28;20050;-42
2022/04/26 04:29:19;;;;;;;9.82;5.55;;;8.60;99.90;;;;;;5093255;28;20027;-42
2022/04/26 04:31:45;;;;;;;7.15;4.90;;;8.60;99.90;;;;;;5096287;28;20031;-42
2022/04/26 04:34:14;;;;;;;7.80;4.88;;;8.60;99.90;;;;;;5098475;28;20032;-42
2022/04/26 04:36:42;;;;;;;6.57;4.53;;;8.60;99.90;;;;;;5085974;28;20428;-41
2022/04/26 04:39:07;;;;;;;8.23;5.22;;;8.60;99.90;;;;;;5096524;28;20040;-43
2022/04/26 04:41:36;;;;;;;7.95;4.88;;;8.60;99.90;;;;;;5085999;28;20467;-42
2022/04/26 04:44:04;;;;;;;9.15;5.60;;;8.60;99.90;;;;;;5095223;28;20498;-42
2022/04/26 04:46:29;;;;;;;7.05;4.93;;;8.60;99.90;;;;;;5087496;28;20048;-42
2022/04/26 04:48:55;;;;;;;7.88;5.38;;;8.60;99.90;;;;;;5092871;28;20031;-42
2022/04/26 04:51:20;;;;;;;9.00;5.70;;;8.60;99.90;;;;;;5090967;28;20032;-43
2022/04/26 04:53:46;;;;;;;10.98;5.50;;;8.60;99.90;;;;;;5089792;28;20031;-43
2022/04/26 04:56:11;;;;;;;9.52;5.22;;;8.60;99.90;;;;;;5092968;28;20395;-42
2022/04/26 04:58:38;;;;;;;10.57;5.40;;;8.70;99.90;;;;;;5085581;28;20059;-43
2022/04/26 05:01:03;;;;;;;6.95;4.97;;;8.60;99.90;;;;;;5096718;28;20025;-43
2022/04/26 05:03:29;;;;;;;12.70;6.43;;;8.70;99.90;;;;;;5086599;28;20034;-42
2022/04/26 05:05:54;;;;;;;9.52;6.35;;;8.70;99.90;;;;;;5095848;28;20028;-41
2022/04/26 05:08:24;;;;;;;10.93;6.82;;;8.70;99.90;;;;;;5085491;28;20818;-42
2022/04/26 05:10:50;;;;;;;9.73;6.40;;;8.70;99.90;;;;;;5097799;28;20031;-43
2022/04/26 05:13:15;;;;;;;10.70;6.85;;;8.70;99.90;;;;;;5088287;28;20415;-41
2022/04/26 05:15:44;;;;;;;8.35;6.50;;;8.80;99.90;;;;;;5101583;28;20088;-42
2022/04/26 05:18:13;;;;;;;9.52;6.50;;;8.80;99.90;;;;;;5090157;28;20024;-41
2022/04/26 05:20:39;;;;;;;10.65;6.95;;;8.80;99.90;;;;;;5100412;28;20476;-42
2022/04/26 05:25:49;;;;;;;10.00;6.38;;;8.90;99.90;;;;;;5102133;28;20073;-42
2022/04/26 05:28:14;;;;;;;10.70;6.60;;;9.00;99.90;;;;;;5088133;28;20024;-43
2022/04/26 05:30:40;;;;;;;11.90;7.45;;;8.90;99.90;;;;;;5099179;28;20126;-42
2022/04/26 05:33:05;;;;;;;12.70;8.35;;;9.00;99.90;;;;;;5108676;28;20019;-42
2022/04/26 05:35:31;;;;;;;10.20;7.20;;;9.00;99.90;;;;;;5100190;28;20047;-42
2022/04/26 05:37:56;;;;;;;11.27;8.02;;;9.10;99.90;;;;;;5105094;28;20076;-42
2022/04/26 05:40:22;;;;;;;9.45;6.80;;;9.10;99.90;;;;;;5103552;28;20077;-42
2022/04/26 05:42:47;;;;;;;11.07;7.90;;;9.10;99.90;;;;;;5100703;28;20031;-43
2022/04/26 05:45:13;;;;;;;10.65;7.80;;;9.10;99.90;;;;;;5106028;28;20458;-43
2022/04/26 05:47:43;;;;;;;12.45;7.47;;;9.20;99.90;;;;;;5086287;28;20541;-42
2022/04/26 05:50:10;;;;;;;11.75;8.00;;;9.20;99.90;;;;;;5086676;28;20045;-43
2022/04/26 05:52:36;;;;;;;8.02;6.88;;;9.20;99.90;;;;;;5099062;28;20025;-43
2022/04/26 05:55:04;;;;;;;9.68;6.97;;;9.20;99.90;;;;;;5085140;28;20024;-42
2022/04/26 05:57:30;;;;;;;11.63;7.97;;;9.30;99.90;;;;;;5096669;28;20044;-44
2022/04/26 05:59:56;;;;;;;12.60;7.75;;;9.30;99.90;;;;;;5087742;28;20016;-42
2022/04/26 06:02:21;;;;;;;10.30;7.78;;;9.30;99.90;;;;;;5099101;28;20082;-43
2022/04/26 06:04:47;;;;;;;13.40;7.88;;;9.30;99.90;;;;;;5085985;28;20042;-43
2022/04/26 06:07:12;;;;;;;9.30;6.93;;;9.40;99.90;;;;;;5097816;28;20210;-42
2022/04/26 06:09:38;;;;;;;9.13;6.65;;;9.40;99.90;;;;;;5084666;28;20041;-43
2022/04/26 06:12:07;;;;;;;12.27;7.32;;;9.40;99.90;;;;;;5096516;28;20040;-42
2022/04/26 06:14:32;;;;;;;14.18;7.60;;;9.50;99.90;;;;;;5086881;28;20044;-44
2022/04/26 06:16:58;;;;;;;8.65;7.15;;;9.50;99.90;;;;;;5094629;28;20027;-41
2022/04/26 06:19:23;;;;;;;13.43;7.82;;;9.60;99.90;;;;;;5090694;28;20392;-42
2022/04/26 06:21:49;;;;;;;12.25;7.90;;;9.60;99.90;;;;;;5092672;28;20019;-42
2022/04/26 06:24:14;;;;;;;12.10;7.30;;;9.70;99.90;;;;;;5091766;28;20532;-42
2022/04/26 06:26:40;;;;;;;12.48;6.82;;;9.80;99.90;;;;;;5088930;28;20445;-43
2022/04/26 06:29:06;;;;;;;9.55;6.75;;;9.90;99.90;;;;;;5096858;28;20081;-42
2022/04/26 06:31:32;;;;;;;12.48;7.60;;;10.00;99.90;;;;;;5088545;28;20027;-43
2022/04/26 06:33:57;;;;;;;14.98;7.10;;;10.00;99.90;;;;;;5096442;28;20490;-43
2022/04/26 06:36:23;;;;;;;10.77;7.05;;;10.10;99.90;;;;;;5085406;28;20048;-43
2022/04/26 06:38:49;;;;;;;12.73;6.93;;;10.10;99.90;;;;;;5095289;28;20020;-43
2022/04/26 06:41:15;;;;;;;13.05;6.93;;;10.20;99.90;;;;;;5087116;28;20055;-43
2022/04/26 06:43:41;;;;;;;13.35;7.50;;;10.20;99.90;;;;;;5099799;28;20047;-43
2022/04/26 06:46:06;;;;;;;10.68;7.15;;;10.20;99.90;;;;;;5087074;28;20067;-43
2022/04/26 06:48:32;;;;;;;9.23;6.53;;;10.20;99.90;;;;;;5099886;28;20060;-44
2022/04/26 06:50:57;;;;;;;8.93;6.63;;;10.20;99.90;;;;;;5087895;28;20077;-43
2022/04/26 06:53:23;;;;;;;12.00;7.15;;;10.20;99.90;;;;;;5096343;28;20131;-42
2022/04/26 06:55:48;;;;;;;9.95;6.90;;;10.20;99.90;;;;;;5090571;28;20024;-42
2022/04/26 06:58:14;;;;;;;9.60;6.70;;;10.20;99.90;;;;;;5091578;28;20141;-43
2022/04/26 07:00:40;;;;;;;12.55;7.53;;;10.20;99.90;;;;;;5090915;28;20078;-38
2022/04/26 07:03:05;;;;;;;9.18;5.70;;;10.20;99.90;;;;;;5091883;28;20022;-40
2022/04/26 07:05:31;;;;;;;11.02;6.65;;;10.30;99.90;;;;;;5095506;28;20035;-45
2022/04/26 07:07:56;;;;;;;13.02;6.78;;;10.30;99.90;;;;;;5089100;28;20028;-43
2022/04/26 07:10:22;;;;;;;8.32;5.80;;;10.30;99.90;;;;;;5097116;28;20093;-44
2022/04/26 07:12:48;;;;;;;10.30;5.88;;;10.30;99.90;;;;;;5087294;28;20011;-41
2022/04/26 07:15:14;;;;;;;10.85;6.35;;;10.30;99.90;;;;;;5097588;28;20031;-39
2022/04/26 07:17:46;;;;;;;9.07;6.30;;;10.40;99.90;;;;;;5087779;28;20608;-43
2022/04/26 07:20:11;;;;;;;9.67;6.37;;;10.30;99.90;;;;;;5094194;28;20020;-42
2022/04/26 07:22:38;;;;;;;11.65;7.18;;;10.30;99.90;;;;;;5086217;28;20597;-41
2022/04/26 07:25:05;;;;;;;9.23;6.68;;;10.20;99.90;;;;;;5099272;28;20047;-41
2022/04/26 07:27:31;;;;;;;9.23;6.72;;;10.20;99.90;;;;;;5085961;28;20563;-43
2022/04/26 07:30:00;;;;;;;13.45;7.63;;;10.10;99.90;;;;;;5099406;28;20024;-43
2022/04/26 07:35:10;;;;;;;11.68;6.93;;;10.00;99.90;;;;;;5092742;28;20544;-43
2022/04/26 07:37:37;;;;;;;8.95;6.45;;;9.90;99.90;;;;;;5106445;28;20028;-43
2022/04/26 07:40:03;;;;;;;13.35;6.45;;;9.80;99.90;;;;;;5096349;28;20609;-41
2022/04/26 07:42:29;;;;;;;10.05;5.90;;;9.80;99.90;;;;;;5104015;28;20509;-42
2022/04/26 07:44:54;;;;;;;13.52;6.38;;;9.80;99.90;;;;;;5098225;28;20379;-43
2022/04/26 07:47:22;;;;;;;9.25;5.72;;;9.80;99.90;;;;;;5101477;28;20497;-42
2022/04/26 07:49:48;;;;;;;7.50;5.45;;;9.90;99.90;;;;;;5100175;28;20020;-42
2022/04/26 07:52:15;;;;;;;6.93;4.57;;;9.80;99.90;;;;;;5099705;28;20032;-41
2022/04/26 07:54:41;;;;;;;8.38;5.63;;;9.90;99.90;;;;;;5101853;28;20015;-43
2022/04/26 07:57:07;;;;;;;9.23;5.43;;;9.90;99.90;;;;;;5097934;28;20165;-43
2022/04/26 07:59:33;;;;;;;10.07;6.07;;;9.90;99.90;;;;;;5104337;28;20118;-43
2022/04/26 08:01:58;;;;;;;7.68;5.25;;;10.00;99.90;;;;;;5094608;28;20046;-43
2022/04/26 08:04:24;;;;;;;6.40;4.93;;;10.00;99.90;;;;;;5104543;28;20101;-42
2022/04/26 08:06:49;;;;;;;8.88;5.45;;;10.00;99.90;;;;;;5094916;28;20031;-42
2022/04/26 08:09:15;;;;;;;9.35;5.93;;;10.10;99.90;;;;;;5105941;28;20027;-43
2022/04/26 08:11:40;;;;;;;9.88;6.05;;;10.10;99.90;;;;;;5092665;28;20020;-42
2022/04/26 08:14:06;;;;;;;9.60;5.85;;;10.20;99.90;;;;;;5106384;28;20059;-41
2022/04/26 08:16:31;;;;;;;8.90;5.00;;;10.30;99.90;;;;;;5092166;28;20023;-41
2022/04/26 08:18:57;;;;;;;8.70;5.43;;;10.40;99.90;;;;;;5106822;28;20357;-42
2022/04/26 08:21:23;;;;;;;5.90;4.80;;;10.50;99.90;;;;;;5094910;28;20105;-40
2022/04/26 08:29:18;;;;;;;5.97;4.45;;;10.80;99.90;;;;;;5064241;28;20102;-39
2022/04/26 08:31:44;;;;;;;8.57;3.65;;;10.80;99.90;;;;;;5084409;28;20025;-41
2022/04/26 08:34:10;;;;;;;4.15;3.70;;;10.90;99.90;;;;;;5084251;28;20031;-40
2022/04/26 08:36:36;;;;;;;5.20;3.30;;;11.00;99.90;;;;;;5088695;28;20020;-38
2022/04/26 08:39:03;;;;;;;5.00;3.22;;;11.10;99.90;;;;;;5101976;28;20047;-41
2022/04/26 08:41:29;;;;;;;6.15;3.40;;;11.10;99.90;;;;;;5099927;28;20059;-42
2022/04/26 08:43:55;;;;;;;4.40;3.15;;;11.20;99.90;;;;;;5098406;28;20030;-38
2022/04/26 08:46:21;;;;;;;5.43;3.30;;;11.30;99.90;;;;;;5103002;28;20028;-45
2022/04/26 08:51:45;;;;;;;5.10;3.10;;;11.40;99.90;;;;;;5080421;28;20119;-42
2022/04/26 08:54:12;;;;;;;4.18;2.85;;;11.60;99.80;;;;;;5103174;28;20023;-44
2022/04/26 08:56:38;;;;;;;4.53;2.80;;;11.60;99.80;;;;;;5106939;28;20107;-42
2022/04/26 08:59:04;;;;;;;6.00;3.30;;;11.70;99.80;;;;;;5099604;28;20119;-41
2022/04/26 09:01:29;;;;;;;6.82;3.92;;;11.80;99.40;;;;;;5108340;28;20028;-41
2022/04/26 09:03:59;;;;;;;6.18;4.13;;;11.80;98.00;;;;;;5098771;28;20028;-42
2022/04/26 09:06:43;;;;;;;7.75;3.78;;;11.80;98.00;;;;;;5107067;28;20105;-42
2022/04/26 09:09:11;;;;;;;6.65;4.15;;;11.80;97.70;;;;;;5099276;28;20027;-44
2022/04/26 09:11:37;;;;;;;5.32;3.78;;;11.90;97.30;;;;;;5108199;28;20032;-42
2022/04/26 09:14:07;;;;;;;5.50;3.33;;;11.90;97.10;;;;;;5098124;28;20031;-44
2022/04/26 09:16:33;;;;;;;4.22;3.38;;;12.00;96.90;;;;;;5109638;28;20115;-44
2022/04/26 09:19:06;;;;;;;5.47;3.92;;;12.00;96.20;;;;;;5096211;28;20165;-42
2022/04/26 09:21:33;;;;;;;5.88;3.67;;;12.10;95.90;;;;;;5109155;28;20024;-43
2022/04/26 09:24:04;;;;;;;4.50;3.25;;;12.10;95.60;;;;;;5096592;28;20054;-41
2022/04/26 09:26:34;;;;;;;7.95;3.65;;;12.20;95.80;;;;;;5108480;28;20036;-43
2022/04/26 09:29:00;;;;;;;5.50;3.40;;;12.30;95.10;;;;;;5096402;28;20031;-43
2022/04/26 09:31:28;;;;;;;7.07;2.97;;;12.40;94.20;;;;;;5108249;28;20384;-41
2022/04/26 09:34:04;;;;;;;4.22;2.88;;;12.50;93.90;;;;;;5097190;28;20024;-43
2022/04/26 09:36:31;;;;;;;5.75;3.40;;;12.60;94.30;;;;;;5069511;28;20024;-43
2022/04/26 09:38:58;;;;;;;3.97;2.72;;;12.70;93.90;;;;;;5088474;28;20503;-43
2022/04/26 09:41:26;;;;;;;4.15;2.72;;;12.70;93.60;;;;;;5084276;28;20036;-44
2022/04/26 09:43:55;;;;;;;5.80;2.83;;;12.80;93.50;;;;;;5081962;28;20019;-43
2022/04/26 09:46:21;;;;;;;4.80;2.90;;;12.80;93.50;;;;;;5074356;28;20127;-42
2022/04/26 09:48:46;;;;;;;8.00;2.90;;;12.90;93.10;;;;;;5088445;28;20019;-42
2022/04/26 09:51:12;;;;;;;5.40;3.38;;;12.90;93.40;;;;;;5095390;28;20028;-45
2022/04/26 09:53:37;;;;;;;4.30;2.53;;;12.90;93.70;;;;;;5104370;28;20087;-42
2022/04/26 09:56:05;;;;;;;3.95;2.65;;;13.00;94.00;;;;;;5099286;28;20038;-42
2022/04/26 09:58:31;;;;;;;8.55;2.92;;;13.10;94.20;;;;;;5105984;28;20035;-43
2022/04/26 10:00:59;;;;;;;9.63;2.75;;;13.20;94.00;;;;;;5096865;28;20735;-42
2022/04/26 10:03:35;;;;;;;3.22;2.50;;;13.30;94.00;;;;;;5107063;28;20116;-42
2022/04/26 10:06:04;;;;;;;7.22;2.85;;;13.40;94.20;;;;;;5097501;28;20148;-42
2022/04/26 10:08:32;;;;;;;7.32;3.10;;;13.40;93.80;;;;;;5105610;28;20106;-44
2022/04/26 10:11:00;;;;;;;6.30;3.15;;;13.50;93.50;;;;;;5097707;28;20015;-43
2022/04/26 10:13:32;;;;;;;4.47;3.00;;;13.50;93.70;;;;;;5108091;28;20020;-43
2022/04/26 10:16:05;;;;;;;7.20;3.08;;;13.50;93.80;;;;;;5093566;28;20459;-42
2022/04/26 10:18:47;;;;;;;7.15;2.92;;;13.50;93.70;;;;;;5104338;28;20020;-45
2022/04/26 10:21:38;;;;;;;5.88;2.85;;;13.50;93.90;;;;;;5096965;28;20028;-42
2022/04/26 10:24:20;;;;;;;5.10;3.50;;;13.70;93.60;;;;;;5106039;28;20115;-42
2022/04/26 10:26:47;;;;;;;6.90;3.00;;;13.80;93.70;;;;;;5096098;28;20032;-42
2022/04/26 10:29:16;;;;;;;4.30;3.00;;;13.90;93.90;;;;;;5105235;28;20028;-43
2022/04/26 10:31:42;;;;;;;3.83;2.83;;;14.00;93.70;;;;;;5092240;28;20356;-42
2022/04/26 10:34:27;;;;;;;3.25;2.53;;;14.10;93.50;;;;;;5088402;28;20047;-43
2022/04/26 10:37:11;;;;;;;3.70;2.85;;;14.30;93.40;;;;;;5098422;28;20031;-42
2022/04/26 10:39:38;;;;;;;3.85;3.03;;;14.40;93.00;;;;;;5088501;28;20023;-42
2022/04/26 10:42:27;;;;;;;6.53;3.05;;;14.50;92.50;;;;;;5099390;28;20081;-42
2022/04/26 10:45:15;;;;;;;4.18;2.60;;;14.50;91.90;;;;;;5088629;28;20103;-42
2022/04/26 10:47:40;;;;;;;3.33;2.60;;;14.50;92.00;;;;;;5078999;28;20787;-43
2022/04/26 10:50:08;;;;;;;4.40;2.80;;;14.50;92.00;;;;;;5088931;28;20486;-41
2022/04/26 10:52:40;;;;;;;4.20;2.58;;;14.60;91.70;;;;;;5097892;28;20047;-42
2022/04/26 10:55:12;;;;;;;4.80;2.63;;;14.60;91.60;;;;;;5088927;28;20042;-43
2022/04/26 10:57:41;;;;;;;5.20;3.08;;;14.60;91.60;;;;;;5096947;28;20059;-45
2022/04/26 11:00:07;;;;;;;4.45;3.05;;;14.70;91.60;;;;;;5086741;28;20119;-42
2022/04/26 11:02:35;;;;;;;4.88;3.10;;;14.70;91.20;;;;;;5098436;28;20107;-42
2022/04/26 11:05:12;;;;;;;4.70;2.88;;;14.70;90.80;;;;;;5086691;28;20028;-43
2022/04/26 11:07:48;;;;;;;5.00;2.63;;;14.70;90.80;;;;;;5093308;28;20031;-43
2022/04/26 11:10:18;;;;;;;5.70;2.80;;;14.70;90.90;;;;;;5106997;28;20068;-43
2022/04/26 11:12:44;;;;;;;5.13;2.90;;;14.70;90.80;;;;;;5093318;28;20054;-41
2022/04/26 11:15:15;;;;;;;7.07;3.33;;;14.70;90.50;;;;;;5107446;28;20023;-43
2022/04/26 11:17:42;;;;;;;4.57;3.00;;;14.70;90.00;;;;;;5094026;28;20032;-43
2022/04/26 11:20:17;;;;;;;4.65;2.85;;;14.70;90.20;;;;;;5106282;28;20024;-43
2022/04/26 11:22:46;;;;;;;4.25;2.50;;;14.80;90.10;;;;;;5094033;28;20028;-42
2022/04/26 11:28:06;;;;;;;5.00;3.10;;;14.90;89.30;;;;;;5094483;28;20046;-43
2022/04/26 11:30:36;;;;;;;6.03;3.30;;;15.00;88.90;;;;;;5106079;28;20463;-42
2022/04/26 11:33:14;;;;;;;6.90;2.97;;;15.00;88.60;;;;;;5094090;28;20423;-43
2022/04/26 11:35:41;;;;;;;4.55;2.92;;;15.00;88.70;;;;;;5106964;28;20024;-43
2022/04/26 11:38:14;;;;;;;6.38;3.55;;;14.90;89.10;;;;;;5094831;28;20099;-43
2022/04/26 11:40:46;;;;;;;6.55;3.10;;;14.90;89.00;;;;;;5065947;28;20028;-43
2022/04/26 11:43:16;;;;;;;4.82;3.60;;;14.90;89.20;;;;;;5092900;28;20042;-42
2022/04/26 11:45:46;;;;;;;5.22;3.40;;;14.90;89.50;;;;;;5087115;28;20046;-40
2022/04/26 11:48:14;;;;;;;6.05;3.38;;;14.80;89.50;;;;;;5095451;28;20077;-44
2022/04/26 11:50:40;;;;;;;5.25;3.30;;;14.80;89.50;;;;;;5088421;28;20024;-42
2022/04/26 11:53:11;;;;;;;3.85;3.33;;;14.80;89.50;;;;;;5093890;28;20026;-42
2022/04/26 11:55:56;;;;;;;4.22;3.15;;;14.80;89.30;;;;;;5089684;28;20057;-44
2022/04/26 11:58:34;;;;;;;8.65;3.10;;;15.00;88.70;;;;;;5093658;28;20402;-42
2022/04/26 12:01:11;;;;;;;4.70;3.05;;;15.10;88.50;;;;;;5088271;28;20099;-42
2022/04/26 12:03:46;;;;;;;8.38;3.50;;;15.10;88.20;;;;;;5094260;28;20038;-44
2022/04/26 12:06:15;;;;;;;5.28;3.25;;;15.10;88.10;;;;;;5088413;28;20028;-42
2022/04/26 12:08:42;;;;;;;4.15;2.60;;;15.00;86.90;;;;;;5092645;28;20134;-42
2022/04/26 12:11:15;;;;;;;5.07;2.50;;;14.90;87.20;;;;;;5090803;28;20028;-42
2022/04/26 12:13:41;;;;;;;3.40;2.50;;;14.90;87.40;;;;;;5091987;28;20035;-43
2022/04/26 12:16:20;;;;;;;3.92;2.55;;;14.80;87.60;;;;;;5091725;28;20032;-43
2022/04/26 12:18:51;;;;;;;4.00;2.15;;;14.90;87.50;;;;;;5091712;28;20024;-42
2022/04/26 12:21:17;;;;;;;5.53;2.90;;;15.00;87.10;;;;;;5091724;28;20085;-42
2022/04/26 12:23:43;;;;;;;3.97;2.78;;;15.10;86.70;;;;;;5086381;28;20026;-42
2022/04/26 12:26:09;;;;;;;3.33;2.53;;;15.20;85.80;;;;;;5094345;28;20386;-42
2022/04/26 12:28:49;;;;;;;3.97;2.75;;;15.40;86.30;;;;;;5084366;28;20045;-44
2022/04/26 12:31:28;;;;;;;4.15;2.80;;;15.50;86.10;;;;;;5086624;28;20503;-43
2022/04/26 12:34:12;;;;;;;3.90;2.67;;;15.60;85.60;;;;;;5074614;28;20380;-43
2022/04/26 12:36:53;;;;;;;4.72;2.60;;;15.50;85.30;;;;;;5092761;28;20035;-44
2022/04/26 12:39:23;;;;;;;3.33;2.78;;;15.50;84.30;;;;;;5089542;28;20028;-43
2022/04/26 12:41:51;;;;;;;3.95;2.78;;;15.50;84.90;;;;;;5093020;28;20276;-43
2022/04/26 12:44:17;;;;;;;3.47;2.65;;;15.50;84.80;;;;;;5087607;28;20610;-43
2022/04/26 12:50:33;;;;;;;5.05;3.00;;;15.50;84.40;;;;;;5046126;28;20032;-42
2022/04/26 12:53:00;;;;;;;3.60;2.42;;;15.60;84.00;;;;;;5081505;28;20052;-41
2022/04/26 12:55:28;;;;;;;3.47;2.55;;;15.80;84.00;;;;;;5075022;28;20023;-42
2022/04/26 12:57:56;;;;;;;4.65;2.45;;;15.90;83.70;;;;;;5095221;28;20048;-44
2022/04/26 13:00:23;;;;;;;3.20;2.70;;;15.90;82.80;;;;;;5096585;28;20483;-45
2022/04/26 13:02:54;;;;;;;4.07;2.95;;;15.90;81.10;;;;;;5100594;28;20067;-43
2022/04/26 13:05:21;;;;;;;3.92;2.50;;;15.80;81.10;;;;;;5098762;28;20116;-42
2022/04/26 13:07:47;;;;;;;3.33;2.45;;;15.70;81.40;;;;;;5099156;28;20110;-43
2022/04/26 13:10:17;;;;;;;2.60;2.05;;;15.50;81.90;;;;;;5101424;28;20015;-43
2022/04/26 13:12:43;;;;;;;2.90;2.53;;;15.50;82.50;;;;;;5096247;28;20030;-42
2022/04/26 13:15:09;;;;;;;5.93;2.92;;;15.50;82.10;;;;;;5104224;28;20594;-42
2022/04/26 13:17:36;;;;;;;6.07;3.42;;;15.40;81.20;;;;;;5082157;28;20617;-44
2022/04/26 13:20:06;;;;;;;3.20;2.00;;;15.40;81.20;;;;;;5103364;28;20121;-44
2022/04/26 13:22:36;;;;;;;4.50;2.70;;;15.30;81.60;;;;;;5093616;28;20034;-44
2022/04/26 13:25:05;;;;;;;4.22;3.08;;;15.30;79.60;;;;;;5103695;28;20023;-43
2022/04/26 13:27:31;;;;;;;6.38;3.40;;;15.20;79.30;;;;;;5092067;28;20487;-43
2022/04/26 13:29:57;;;;;;;4.82;3.05;;;15.20;79.00;;;;;;5085427;28;20804;-43
2022/04/26 13:32:23;;;;;;;4.95;3.00;;;15.10;79.60;;;;;;5099677;28;20062;-43
2022/04/26 13:34:50;;;;;;;5.72;2.13;;;15.10;80.00;;;;;;5102303;28;20157;-43
2022/04/26 13:37:17;;;;;;;4.03;2.38;;;15.20;79.70;;;;;;5101232;28;20024;-42
2022/04/26 13:39:45;;;;;;;4.85;2.35;;;15.20;79.70;;;;;;5088556;28;20034;-42
2022/04/26 13:42:14;;;;;;;2.17;1.95;;;15.30;80.10;;;;;;5099577;28;20074;-43
2022/04/26 13:44:41;;;;;;;3.45;2.15;;;15.40;80.30;;;;;;5089488;28;20028;-42
2022/04/26 13:47:07;;;;;;;6.35;2.15;;;15.50;80.30;;;;;;5097388;28;20061;-42
2022/04/26 13:49:34;;;;;;;2.90;2.30;;;15.60;79.70;;;;;;5090976;28;20039;-41
2022/04/26 13:52:03;;;;;;;3.70;2.72;;;15.70;78.30;;;;;;5094878;28;20102;-42
2022/04/26 13:54:29;;;;;;;3.90;2.30;;;15.70;78.70;;;;;;5092857;28;20406;-41
2022/04/26 13:56:56;;;;;;;3.47;2.22;;;15.70;78.60;;;;;;5092829;28;20570;-42
2022/04/26 13:59:22;;;;;;;3.92;2.10;;;15.70;78.70;;;;;;5095890;28;20039;-42
2022/04/26 14:01:49;;;;;;;3.53;2.20;;;15.60;78.00;;;;;;5089386;28;20071;-42
2022/04/26 14:04:15;;;;;;;3.97;2.90;;;15.50;77.30;;;;;;5098033;28;20055;-42
2022/04/26 14:06:41;;;;;;;5.60;2.50;;;15.50;77.50;;;;;;5089315;28;20685;-43
2022/04/26 14:09:06;;;;;;;5.68;2.58;;;15.40;77.80;;;;;;5099139;28;20024;-40
2022/04/26 14:11:32;;;;;;;2.67;2.00;;;15.50;78.00;;;;;;5088963;28;20261;-44
2022/04/26 14:22:11;;;;;;;4.40;2.30;;;15.50;76.80;;;;;;5088242;28;20248;-38
2022/04/26 14:24:38;;;;;;;5.30;3.15;;;15.40;77.50;;;;;;5099044;28;20024;-41
2022/04/26 14:27:03;;;;;;;3.83;2.67;;;15.40;77.70;;;;;;5088833;28;20182;-40
2022/04/26 14:29:29;;;;;;;3.13;2.30;;;15.50;77.80;;;;;;5098054;28;20028;-42
2022/04/26 14:31:54;;;;;;;4.22;2.65;;;15.50;77.60;;;;;;5088438;28;20024;-41
2022/04/26 14:34:20;;;;;;;4.03;2.70;;;15.60;77.90;;;;;;5100415;28;20028;-41
2022/04/26 14:36:46;;;;;;;4.55;2.58;;;15.60;77.80;;;;;;5086915;28;20024;-39
2022/04/26 14:39:12;;;;;;;4.25;2.30;;;15.60;78.50;;;;;;5100393;28;20015;-41
2022/04/26 14:41:39;;;;;;;4.97;2.75;;;15.60;79.10;;;;;;5087275;28;20372;-42
2022/04/26 14:44:06;;;;;;;2.92;2.38;;;15.70;77.70;;;;;;5095654;28;20060;-42
2022/04/26 14:46:33;;;;;;;2.85;2.42;;;15.60;77.90;;;;;;5089582;28;20036;-42
2022/04/26 14:48:58;;;;;;;3.90;2.50;;;15.60;78.40;;;;;;5094897;28;20024;-41
2022/04/26 14:51:24;;;;;;;4.28;2.40;;;15.60;78.50;;;;;;5091293;28;20389;-42
2022/04/26 14:53:49;;;;;;;4.05;2.80;;;15.60;79.00;;;;;;5091382;28;20035;-42
2022/04/26 14:56:15;;;;;;;2.63;2.40;;;15.50;79.00;;;;;;5094265;28;20048;-40
2022/04/26 14:58:41;;;;;;;6.13;3.25;;;15.50;78.90;;;;;;5088348;28;20507;-42
2022/04/26 15:01:07;;;;;;;3.80;2.80;;;15.50;78.40;;;;;;5097848;28;20032;-43
2022/04/26 15:03:32;;;;;;;3.55;2.25;;;15.50;78.60;;;;;;5087180;28;20407;-42
2022/04/26 15:05:59;;;;;;;4.78;2.65;;;15.40;79.10;;;;;;5098232;28;20044;-41
2022/04/26 15:11:10;;;;;;;4.10;2.67;;;15.30;80.00;;;;;;5077677;28;20043;-42
2022/04/26 15:16:38;;;;;;;6.15;3.22;;;15.10;80.90;;;;;;5096554;28;20047;-42
2022/04/26 15:19:04;;;;;;;4.38;2.42;;;14.90;81.50;;;;;;5087185;28;20046;-41
2022/04/26 15:21:30;;;;;;;4.07;2.47;;;14.90;82.00;;;;;;5097674;28;20024;-40
2022/04/26 15:23:55;;;;;;;5.70;2.75;;;15.00;82.10;;;;;;5087908;28;20806;-37
2022/04/26 15:26:25;;;;;;;3.70;2.58;;;15.10;81.40;;;;;;5097543;28;20035;-41
2022/04/26 15:28:51;;;;;;;3.53;2.60;;;15.10;81.20;;;;;;5086813;28;20103;-41
2022/04/26 15:31:18;;;;;;;4.40;2.85;;;15.10;80.90;;;;;;5098182;28;20072;-42
2022/04/26 15:33:45;;;;;;;4.05;2.50;;;15.10;81.00;;;;;;5088983;28;20458;-41
2022/04/26 15:36:14;;;;;;;5.38;2.50;;;15.00;81.30;;;;;;5099224;28;20023;-42
2022/04/26 15:38:40;;;;;;;3.42;2.67;;;15.00;81.00;;;;;;5085754;28;20492;-42
2022/04/26 15:41:06;;;;;;;3.40;2.70;;;15.00;80.80;;;;;;5097328;28;20031;-42
2022/04/26 15:43:36;;;;;;;4.00;2.53;;;15.00;81.10;;;;;;5087452;28;20081;-42
2022/04/26 15:46:08;;;;;;;2.80;2.38;;;15.00;81.20;;;;;;5094330;28;20050;-42
2022/04/26 15:48:37;;;;;;;3.80;3.00;;;15.00;81.30;;;;;;5088890;28;20024;-41
2022/04/26 15:51:06;;;;;;;3.88;2.40;;;15.00;81.10;;;;;;5093480;28;20024;-42
2022/04/26 15:53:33;;;;;;;4.00;2.40;;;15.00;81.30;;;;;;5089729;28;20069;-41
2022/04/26 15:55:59;;;;;;;2.25;2.05;;;15.10;81.30;;;;;;5090781;28;20035;-42
2022/04/26 15:58:24;;;;;;;2.85;2.47;;;15.10;81.30;;;;;;5092564;28;20498;-42
2022/04/26 16:00:51;;;;;;;3.55;2.42;;;15.10;81.20;;;;;;5088098;28;20028;-40
2022/04/26 16:03:16;;;;;;;3.33;2.28;;;15.10;80.80;;;;;;5095673;28;20020;-40
2022/04/26 16:05:44;;;;;;;3.22;2.58;;;15.00;80.80;;;;;;5086737;28;20501;-40
2022/04/26 16:08:10;;;;;;;4.22;2.83;;;15.10;81.10;;;;;;5096576;28;20063;-41
2022/04/26 16:21:32;;;;;;;3.65;2.20;;;14.90;80.60;;;;;;5102089;28;20357;-42
2022/04/26 16:23:59;;;;;;;2.78;2.00;;;14.90;80.80;;;;;;5095163;28;20036;-41
2022/04/26 16:26:27;;;;;;;2.45;1.98;;;15.00;81.00;;;;;;5103048;28;20028;-42
2022/04/26 16:28:53;;;;;;;3.30;2.00;;;15.10;80.30;;;;;;5094171;28;20023;-41
2022/04/26 16:31:28;;;;;;;2.67;2.00;;;15.10;80.50;;;;;;5104049;28;20027;-40
2022/04/26 16:33:55;;;;;;;3.75;2.05;;;15.10;78.90;;;;;;5105316;28;20019;-41
2022/04/26 16:36:21;;;;;;;2.85;2.15;;;15.10;78.90;;;;;;5101338;28;20016;-42
2022/04/26 16:38:47;;;;;;;2.50;2.20;;;15.00;78.30;;;;;;5097337;28;20540;-42
2022/04/26 16:41:13;;;;;;;2.97;2.00;;;14.90;78.10;;;;;;5085510;28;20031;-39
2022/04/26 16:43:39;;;;;;;3.70;2.35;;;14.80;78.60;;;;;;5096765;28;20391;-41
2022/04/26 16:46:11;;;;;;;2.63;2.30;;;14.80;78.50;;;;;;5085778;28;20040;-43
2022/04/26 16:48:37;;;;;;;;;;;14.80;77.80;;;;;;5097866;28;20028;-40
2022/04/26 16:51:03;;;;;;;3.08;2.25;;;14.80;76.70;;;;;;5084966;28;19911;-42
2022/04/26 16:53:29;;;;;;;2.75;2.13;;;14.70;76.70;;;;;;5095485;28;20030;-39
2022/04/26 16:55:55;;;;;;;3.28;2.08;;;14.70;77.40;;;;;;5085901;28;20031;-41
2022/04/26 16:58:21;;;;;;;2.50;2.20;;;14.70;77.10;;;;;;5092483;28;20067;-42
2022/04/26 17:00:48;;;;;;;4.28;2.33;;;14.60;77.30;;;;;;5089891;28;20056;-41
2022/04/26 17:03:15;;;;;;;2.72;2.40;;;14.50;77.10;;;;;;5089763;28;20100;-42
2022/04/26 17:05:45;;;;;;;4.30;2.08;;;14.50;77.00;;;;;;5091702;28;20032;-43
2022/04/26 17:08:12;;;;;;;5.28;2.20;;;14.50;77.00;;;;;;5090627;28;20066;-42
2022/04/26 17:10:38;;;;;;;2.53;1.83;;;14.40;77.00;;;;;;5096589;28;20123;-40
2022/04/26 17:13:03;;;;;;;2.95;1.88;;;14.30;76.70;;;;;;5090560;28;20024;-43